sensor_id;sensor_type;location;lat;lon;timestamp;pressure;altitude;pressure_sealevel;temperature;humidity
8318;BME280;4196;48.926;8.964;2024-03-02T00:00:21;97930.44;;;3.52;100.00
8318;BME280;4196;48.926;8.964;2024-03-02T00:03:08;97887.63;;;3.27;100.00
8318;BME280;4196;48.926;8.964;2024-03-02T00:05:56;97933.78;;;3.39;100.00
8318;BME280;4196;48.926;8.964;2024-03-02T00:08:43;97894.44;;;3.25;100.00
8318;BME280;4196;48.926;8.964;2024-03-02T00:11:29;97902.16;;;3.34;100.00
8318;BME280;4196;48.926;8.964;2024-03-02T00:14:16;97908.19;;;3.39;100.00
8318;BME280;4196;48.926;8.964;2024-03-02T00:17:03;97947.72;;;3.79;100.00
8318;BME280;4196;48.926;8.964;2024-03-02T00:19:49;97907.38;;;3.48;100.00
8318;BME280;4196;48.926;8.964;2024-03-02T00:22:36;97890.22;;;3.34;100.00
8318;BME280;4196;48.926;8.964;2024-03-02T00:25:23;97903.03;;;3.33;100.00
8318;BME280;4196;48.926;8.964;2024-03-02T00:28:16;97931.28;;;3.48;100.00
8318;BME280;4196;48.926;8.964;2024-03-02T00:31:07;97938.88;;;3.42;100.00
8318;BME280;4196;48.926;8.964;2024-03-02T00:33:54;97923.41;;;3.24;100.00
8318;BME280;4196;48.926;8.964;2024-03-02T00:36:41;97843.75;;;2.79;100.00
8318;BME280;4196;48.926;8.964;2024-03-02T00:39:29;97824.03;;;2.63;100.00
8318;BME280;4196;48.926;8.964;2024-03-02T00:42:19;97806.28;;;2.80;100.00
8318;BME280;4196;48.926;8.964;2024-03-02T00:45:31;97914.19;;;3.44;100.00
8318;BME280;4196;48.926;8.964;2024-03-02T00:48:18;97904.66;;;3.25;100.00
8318;BME280;4196;48.926;8.964;2024-03-02T00:51:04;97904.69;;;3.28;100.00
8318;BME280;4196;48.926;8.964;2024-03-02T00:53:52;97902.81;;;3.08;100.00
8318;BME280;4196;48.926;8.964;2024-03-02T00:56:42;97935.38;;;3.25;100.00
8318;BME280;4196;48.926;8.964;2024-03-02T00:59:30;97883.09;;;2.94;100.00
8318;BME280;4196;48.926;8.964;2024-03-02T01:02:56;97946.63;;;3.50;100.00
8318;BME280;4196;48.926;8.964;2024-03-02T01:05:43;97782.09;;;2.36;100.00
8318;BME280;4196;48.926;8.964;2024-03-02T01:08:35;97912.38;;;3.28;100.00
8318;BME280;4196;48.926;8.964;2024-03-02T01:11:23;97919.13;;;3.23;100.00
8318;BME280;4196;48.926;8.964;2024-03-02T01:14:10;97904.44;;;2.97;100.00
8318;BME280;4196;48.926;8.964;2024-03-02T01:16:57;97766.38;;;1.98;100.00
8318;BME280;4196;48.926;8.964;2024-03-02T01:19:44;97928.28;;;2.96;100.00
8318;BME280;4196;48.926;8.964;2024-03-02T01:22:31;97952.13;;;2.92;100.00
8318;BME280;4196;48.926;8.964;2024-03-02T01:25:19;97938.22;;;2.67;100.00
8318;BME280;4196;48.926;8.964;2024-03-02T01:28:30;97896.09;;;2.31;100.00
8318;BME280;4196;48.926;8.964;2024-03-02T01:31:17;97907.22;;;2.35;100.00
8318;BME280;4196;48.926;8.964;2024-03-02T01:34:03;97875.19;;;2.66;100.00
8318;BME280;4196;48.926;8.964;2024-03-02T01:36:50;97923.03;;;2.82;100.00
8318;BME280;4196;48.926;8.964;2024-03-02T01:39:37;97850.94;;;2.26;100.00
8318;BME280;4196;48.926;8.964;2024-03-02T01:43:06;97861.88;;;2.15;100.00
8318;BME280;4196;48.926;8.964;2024-03-02T01:45:53;97808.47;;;1.59;100.00
8318;BME280;4196;48.926;8.964;2024-03-02T01:48:40;97874.47;;;2.00;100.00
8318;BME280;4196;48.926;8.964;2024-03-02T01:51:27;97899.28;;;2.12;100.00
8318;BME280;4196;48.926;8.964;2024-03-02T01:54:13;97907.84;;;2.15;100.00
8318;BME280;4196;48.926;8.964;2024-03-02T01:57:00;97893.09;;;1.93;100.00
8318;BME280;4196;48.926;8.964;2024-03-02T01:59:46;97911.88;;;1.98;100.00
8318;BME280;4196;48.926;8.964;2024-03-02T02:02:37;97797.25;;;1.47;100.00
8318;BME280;4196;48.926;8.964;2024-03-02T02:05:23;97940.38;;;2.32;100.00
8318;BME280;4196;48.926;8.964;2024-03-02T02:08:10;97901.78;;;2.07;100.00
8318;BME280;4196;48.926;8.964;2024-03-02T02:10:56;97931.63;;;2.11;100.00
8318;BME280;4196;48.926;8.964;2024-03-02T02:13:43;97926.38;;;2.02;100.00
8318;BME280;4196;48.926;8.964;2024-03-02T02:16:29;97905.97;;;2.02;100.00
8318;BME280;4196;48.926;8.964;2024-03-02T02:19:16;97887.06;;;1.86;100.00
8318;BME280;4196;48.926;8.964;2024-03-02T02:26:36;97917.63;;;1.83;100.00
8318;BME280;4196;48.926;8.964;2024-03-02T02:29:22;97893.63;;;1.69;100.00
8318;BME280;4196;48.926;8.964;2024-03-02T02:32:09;97901.16;;;1.61;100.00
8318;BME280;4196;48.926;8.964;2024-03-02T02:34:55;97877.84;;;1.34;100.00
8318;BME280;4196;48.926;8.964;2024-03-02T02:37:43;97885.44;;;1.31;100.00
8318;BME280;4196;48.926;8.964;2024-03-02T02:40:29;97879.44;;;1.26;100.00
8318;BME280;4196;48.926;8.964;2024-03-02T02:43:17;97884.66;;;1.35;100.00
8318;BME280;4196;48.926;8.964;2024-03-02T02:46:03;97894.34;;;1.59;100.00
8318;BME280;4196;48.926;8.964;2024-03-02T02:48:50;97878.84;;;1.45;100.00
8318;BME280;4196;48.926;8.964;2024-03-02T02:51:39;97870.34;;;1.46;100.00
8318;BME280;4196;48.926;8.964;2024-03-02T02:54:25;97849.84;;;1.37;100.00
8318;BME280;4196;48.926;8.964;2024-03-02T02:57:12;97899.19;;;1.42;100.00
8318;BME280;4196;48.926;8.964;2024-03-02T02:59:58;97871.63;;;1.16;100.00
8318;BME280;4196;48.926;8.964;2024-03-02T03:02:49;97896.31;;;1.20;100.00
8318;BME280;4196;48.926;8.964;2024-03-02T03:05:36;97867.19;;;1.03;100.00
8318;BME280;4196;48.926;8.964;2024-03-02T03:08:23;97849.16;;;0.92;100.00
8318;BME280;4196;48.926;8.964;2024-03-02T03:11:09;97873.03;;;0.99;100.00
8318;BME280;4196;48.926;8.964;2024-03-02T03:13:56;97884.03;;;0.95;100.00
8318;BME280;4196;48.926;8.964;2024-03-02T03:16:42;97894.44;;;1.07;100.00
8318;BME280;4196;48.926;8.964;2024-03-02T03:19:28;97869.59;;;0.95;100.00
8318;BME280;4196;48.926;8.964;2024-03-02T03:22:15;97889.25;;;1.03;100.00
8318;BME280;4196;48.926;8.964;2024-03-02T03:25:01;97883.09;;;0.91;100.00
8318;BME280;4196;48.926;8.964;2024-03-02T03:27:49;97874.47;;;0.82;100.00
8318;BME280;4196;48.926;8.964;2024-03-02T03:30:37;97894.91;;;0.85;100.00
8318;BME280;4196;48.926;8.964;2024-03-02T03:33:24;97877.56;;;0.65;100.00
8318;BME280;4196;48.926;8.964;2024-03-02T03:36:10;97853.56;;;0.51;100.00
8318;BME280;4196;48.926;8.964;2024-03-02T03:38:56;97850.84;;;0.42;100.00
8318;BME280;4196;48.926;8.964;2024-03-02T03:41:43;97879.53;;;0.79;100.00
8318;BME280;4196;48.926;8.964;2024-03-02T03:44:30;97872.47;;;0.65;100.00
8318;BME280;4196;48.926;8.964;2024-03-02T03:47:17;97882.72;;;0.68;100.00
8318;BME280;4196;48.926;8.964;2024-03-02T03:50:03;97894.53;;;0.63;100.00
8318;BME280;4196;48.926;8.964;2024-03-02T03:52:53;97891.75;;;0.51;100.00
8318;BME280;4196;48.926;8.964;2024-03-02T03:55:40;97813.91;;;0.15;100.00
8318;BME280;4196;48.926;8.964;2024-03-02T03:58:26;97887.69;;;0.59;100.00
8318;BME280;4196;48.926;8.964;2024-03-02T04:01:12;97849.97;;;0.40;100.00
8318;BME280;4196;48.926;8.964;2024-03-02T04:03:59;97858.50;;;0.43;100.00
8318;BME280;4196;48.926;8.964;2024-03-02T04:06:45;97879.19;;;0.60;100.00
8318;BME280;4196;48.926;8.964;2024-03-02T04:09:31;97869.13;;;0.66;100.00
8318;BME280;4196;48.926;8.964;2024-03-02T04:12:19;97851.78;;;0.47;100.00
8318;BME280;4196;48.926;8.964;2024-03-02T04:15:05;97855.31;;;0.55;100.00
8318;BME280;4196;48.926;8.964;2024-03-02T04:17:52;97897.31;;;0.77;100.00
8318;BME280;4196;48.926;8.964;2024-03-02T04:20:39;97867.38;;;0.65;100.00
8318;BME280;4196;48.926;8.964;2024-03-02T04:23:26;97873.31;;;0.64;100.00
8318;BME280;4196;48.926;8.964;2024-03-02T04:26:12;97863.66;;;0.45;100.00
8318;BME280;4196;48.926;8.964;2024-03-02T04:28:59;97892.78;;;0.59;100.00
8318;BME280;4196;48.926;8.964;2024-03-02T04:31:45;97855.03;;;0.38;100.00
8318;BME280;4196;48.926;8.964;2024-03-02T04:34:31;97903.91;;;0.66;100.00
8318;BME280;4196;48.926;8.964;2024-03-02T04:37:18;97873.91;;;0.48;100.00
8318;BME280;4196;48.926;8.964;2024-03-02T04:40:05;97880.13;;;0.64;100.00
8318;BME280;4196;48.926;8.964;2024-03-02T04:42:54;97894.38;;;0.54;100.00
8318;BME280;4196;48.926;8.964;2024-03-02T04:45:41;97875.41;;;0.38;100.00
8318;BME280;4196;48.926;8.964;2024-03-02T04:48:27;97879.84;;;0.50;100.00
8318;BME280;4196;48.926;8.964;2024-03-02T04:51:14;97856.81;;;0.44;100.00
8318;BME280;4196;48.926;8.964;2024-03-02T04:54:00;97887.56;;;0.53;100.00
8318;BME280;4196;48.926;8.964;2024-03-02T04:56:46;97899.50;;;0.57;100.00
8318;BME280;4196;48.926;8.964;2024-03-02T04:59:36;97892.63;;;0.52;100.00
8318;BME280;4196;48.926;8.964;2024-03-02T05:02:23;97877.25;;;0.47;100.00
8318;BME280;4196;48.926;8.964;2024-03-02T05:05:09;97888.69;;;0.69;100.00
8318;BME280;4196;48.926;8.964;2024-03-02T05:07:56;97856.88;;;0.47;100.00
8318;BME280;4196;48.926;8.964;2024-03-02T05:10:42;97873.53;;;0.77;100.00
8318;BME280;4196;48.926;8.964;2024-03-02T05:13:29;97871.81;;;0.74;100.00
8318;BME280;4196;48.926;8.964;2024-03-02T05:16:15;97877.88;;;0.84;100.00
8318;BME280;4196;48.926;8.964;2024-03-02T05:19:02;97886.44;;;0.86;100.00
8318;BME280;4196;48.926;8.964;2024-03-02T05:21:49;97884.72;;;0.85;100.00
8318;BME280;4196;48.926;8.964;2024-03-02T05:24:36;97869.50;;;0.91;100.00
8318;BME280;4196;48.926;8.964;2024-03-02T05:27:23;97891.44;;;1.33;100.00
8318;BME280;4196;48.926;8.964;2024-03-02T05:30:10;97868.22;;;1.14;100.00
8318;BME280;4196;48.926;8.964;2024-03-02T05:32:56;97879.31;;;1.18;100.00
8318;BME280;4196;48.926;8.964;2024-03-02T05:35:44;97887.06;;;1.26;100.00
8318;BME280;4196;48.926;8.964;2024-03-02T05:38:30;97875.72;;;1.07;100.00
8318;BME280;4196;48.926;8.964;2024-03-02T05:41:17;97914.34;;;1.30;100.00
8318;BME280;4196;48.926;8.964;2024-03-02T05:44:04;97881.59;;;1.03;100.00
8318;BME280;4196;48.926;8.964;2024-03-02T05:46:50;97886.91;;;1.16;100.00
8318;BME280;4196;48.926;8.964;2024-03-02T05:49:37;97900.34;;;1.62;100.00
8318;BME280;4196;48.926;8.964;2024-03-02T05:52:23;97886.19;;;1.24;100.00
8318;BME280;4196;48.926;8.964;2024-03-02T05:55:10;97912.97;;;1.53;100.00
8318;BME280;4196;48.926;8.964;2024-03-02T05:57:57;97898.19;;;1.29;100.00
8318;BME280;4196;48.926;8.964;2024-03-02T06:01:08;97911.31;;;1.55;100.00
8318;BME280;4196;48.926;8.964;2024-03-02T06:03:56;97924.03;;;1.54;100.00
8318;BME280;4196;48.926;8.964;2024-03-02T06:06:42;97883.75;;;1.31;100.00
8318;BME280;4196;48.926;8.964;2024-03-02T06:09:29;97911.91;;;1.39;100.00
8318;BME280;4196;48.926;8.964;2024-03-02T06:12:15;97873.75;;;1.45;100.00
8318;BME280;4196;48.926;8.964;2024-03-02T06:15:02;97899.47;;;1.60;100.00
8318;BME280;4196;48.926;8.964;2024-03-02T06:17:50;97882.41;;;1.55;100.00
8318;BME280;4196;48.926;8.964;2024-03-02T06:20:36;97883.81;;;1.36;100.00
8318;BME280;4196;48.926;8.964;2024-03-02T06:23:23;97897.50;;;1.41;100.00
8318;BME280;4196;48.926;8.964;2024-03-02T06:26:09;97912.13;;;1.54;100.00
8318;BME280;4196;48.926;8.964;2024-03-02T06:28:56;97904.41;;;1.48;100.00
8318;BME280;4196;48.926;8.964;2024-03-02T06:31:42;97910.31;;;1.44;100.00
8318;BME280;4196;48.926;8.964;2024-03-02T06:34:29;97909.41;;;1.40;100.00
8318;BME280;4196;48.926;8.964;2024-03-02T06:37:15;97894.25;;;1.51;100.00
8318;BME280;4196;48.926;8.964;2024-03-02T06:40:02;97904.66;;;1.66;100.00
8318;BME280;4196;48.926;8.964;2024-03-02T06:42:49;97867.34;;;1.75;100.00
8318;BME280;4196;48.926;8.964;2024-03-02T06:45:35;97867.25;;;1.67;100.00
8318;BME280;4196;48.926;8.964;2024-03-02T06:48:22;97938.31;;;2.02;100.00
8318;BME280;4196;48.926;8.964;2024-03-02T06:51:09;97938.50;;;2.17;100.00
8318;BME280;4196;48.926;8.964;2024-03-02T06:53:55;97905.09;;;2.00;100.00
8318;BME280;4196;48.926;8.964;2024-03-02T06:56:42;97910.34;;;2.12;100.00
8318;BME280;4196;48.926;8.964;2024-03-02T06:59:29;97929.22;;;2.24;100.00
8318;BME280;4196;48.926;8.964;2024-03-02T07:02:15;97884.78;;;2.09;100.00
8318;BME280;4196;48.926;8.964;2024-03-02T07:05:03;97932.78;;;2.36;100.00
8318;BME280;4196;48.926;8.964;2024-03-02T07:07:50;97903.72;;;2.25;100.00
8318;BME280;4196;48.926;8.964;2024-03-02T07:10:37;97904.53;;;2.24;100.00
8318;BME280;4196;48.926;8.964;2024-03-02T07:13:23;97911.59;;;2.44;100.00
8318;BME280;4196;48.926;8.964;2024-03-02T07:16:10;97920.06;;;2.42;100.00
8318;BME280;4196;48.926;8.964;2024-03-02T07:19:05;97926.22;;;2.58;100.00
8318;BME280;4196;48.926;8.964;2024-03-02T07:21:52;97941.66;;;2.71;100.00
8318;BME280;4196;48.926;8.964;2024-03-02T07:24:40;97887.69;;;2.41;100.00
8318;BME280;4196;48.926;8.964;2024-03-02T07:27:28;97924.56;;;2.63;100.00
8318;BME280;4196;48.926;8.964;2024-03-02T07:30:14;97940.84;;;2.75;100.00
8318;BME280;4196;48.926;8.964;2024-03-02T07:33:02;97885.31;;;2.55;100.00
8318;BME280;4196;48.926;8.964;2024-03-02T07:35:49;97921.16;;;2.63;100.00
8318;BME280;4196;48.926;8.964;2024-03-02T07:38:35;97935.13;;;3.00;100.00
8318;BME280;4196;48.926;8.964;2024-03-02T07:41:21;97916.25;;;2.86;100.00
8318;BME280;4196;48.926;8.964;2024-03-02T07:44:08;97936.94;;;3.10;100.00
8318;BME280;4196;48.926;8.964;2024-03-02T07:46:54;97889.59;;;2.61;100.00
8318;BME280;4196;48.926;8.964;2024-03-02T07:49:40;97920.47;;;2.82;100.00
8318;BME280;4196;48.926;8.964;2024-03-02T07:52:27;97933.34;;;2.90;100.00
8318;BME280;4196;48.926;8.964;2024-03-02T07:55:13;97933.63;;;3.21;100.00
8318;BME280;4196;48.926;8.964;2024-03-02T07:58:03;97943.75;;;3.11;100.00
8318;BME280;4196;48.926;8.964;2024-03-02T08:00:49;97959.34;;;3.36;100.00
8318;BME280;4196;48.926;8.964;2024-03-02T08:03:40;97946.53;;;3.37;100.00
8318;BME280;4196;48.926;8.964;2024-03-02T08:06:27;97938.03;;;3.42;100.00
8318;BME280;4196;48.926;8.964;2024-03-02T08:09:14;97910.03;;;3.63;100.00
8318;BME280;4196;48.926;8.964;2024-03-02T08:12:01;97945.25;;;3.98;100.00
8318;BME280;4196;48.926;8.964;2024-03-02T08:14:47;97917.94;;;4.04;100.00
8318;BME280;4196;48.926;8.964;2024-03-02T08:17:33;97954.03;;;4.52;100.00
8318;BME280;4196;48.926;8.964;2024-03-02T08:20:23;97938.63;;;4.52;100.00
8318;BME280;4196;48.926;8.964;2024-03-02T08:23:10;97913.91;;;4.74;100.00
8318;BME280;4196;48.926;8.964;2024-03-02T08:25:56;97940.47;;;5.08;100.00
8318;BME280;4196;48.926;8.964;2024-03-02T08:28:43;97890.88;;;5.00;100.00
8318;BME280;4196;48.926;8.964;2024-03-02T08:31:30;97937.09;;;5.49;100.00
8318;BME280;4196;48.926;8.964;2024-03-02T08:34:17;97881.47;;;5.34;100.00
8318;BME280;4196;48.926;8.964;2024-03-02T08:37:03;97908.81;;;5.63;100.00
8318;BME280;4196;48.926;8.964;2024-03-02T08:39:50;97896.81;;;5.78;100.00
8318;BME280;4196;48.926;8.964;2024-03-02T08:42:36;97881.34;;;5.98;100.00
8318;BME280;4196;48.926;8.964;2024-03-02T08:45:23;97856.47;;;6.07;100.00
8318;BME280;4196;48.926;8.964;2024-03-02T08:48:09;97921.34;;;6.62;100.00
8318;BME280;4196;48.926;8.964;2024-03-02T08:50:56;97897.38;;;6.57;100.00
8318;BME280;4196;48.926;8.964;2024-03-02T08:53:42;97911.84;;;6.78;100.00
8318;BME280;4196;48.926;8.964;2024-03-02T08:56:30;97935.66;;;7.11;100.00
8318;BME280;4196;48.926;8.964;2024-03-02T08:59:17;97892.88;;;6.96;100.00
8318;BME280;4196;48.926;8.964;2024-03-02T09:02:03;97919.97;;;7.38;100.00
8318;BME280;4196;48.926;8.964;2024-03-02T09:04:50;97895.09;;;7.36;100.00
8318;BME280;4196;48.926;8.964;2024-03-02T09:07:36;97929.91;;;7.80;100.00
8318;BME280;4196;48.926;8.964;2024-03-02T09:10:24;97880.19;;;7.71;100.00
8318;BME280;4196;48.926;8.964;2024-03-02T09:13:13;97915.19;;;7.92;100.00
8318;BME280;4196;48.926;8.964;2024-03-02T09:16:00;97916.63;;;8.16;100.00
8318;BME280;4196;48.926;8.964;2024-03-02T09:18:47;97888.28;;;8.15;100.00
8318;BME280;4196;48.926;8.964;2024-03-02T09:21:33;97885.50;;;8.32;100.00
8318;BME280;4196;48.926;8.964;2024-03-02T09:24:20;97913.47;;;8.67;99.26
8318;BME280;4196;48.926;8.964;2024-03-02T09:27:07;97898.72;;;8.77;96.74
8318;BME280;4196;48.926;8.964;2024-03-02T09:29:54;97915.41;;;9.11;94.47
8318;BME280;4196;48.926;8.964;2024-03-02T09:32:40;97902.31;;;9.22;91.89
8318;BME280;4196;48.926;8.964;2024-03-02T09:35:27;97915.75;;;9.42;89.26
8318;BME280;4196;48.926;8.964;2024-03-02T09:38:13;97896.81;;;9.43;86.96
8318;BME280;4196;48.926;8.964;2024-03-02T09:41:00;97830.72;;;9.30;83.24
8318;BME280;4196;48.926;8.964;2024-03-02T09:43:47;97841.66;;;9.44;80.69
8318;BME280;4196;48.926;8.964;2024-03-02T09:46:34;97849.31;;;9.51;80.10
8318;BME280;4196;48.926;8.964;2024-03-02T09:49:22;97879.00;;;9.76;80.72
8318;BME280;4196;48.926;8.964;2024-03-02T09:52:10;97876.84;;;10.00;78.48
8318;BME280;4196;48.926;8.964;2024-03-02T09:54:57;97852.88;;;9.91;78.10
8318;BME280;4196;48.926;8.964;2024-03-02T09:57:43;97859.56;;;10.02;77.99
8318;BME280;4196;48.926;8.964;2024-03-02T10:00:30;97872.16;;;10.19;76.61
8318;BME280;4196;48.926;8.964;2024-03-02T10:03:18;97862.50;;;10.28;74.65
8318;BME280;4196;48.926;8.964;2024-03-02T10:06:25;97882.88;;;10.44;73.10
8318;BME280;4196;48.926;8.964;2024-03-02T10:09:26;97887.88;;;10.51;73.62
8318;BME280;4196;48.926;8.964;2024-03-02T10:12:15;97888.56;;;10.61;74.30
8318;BME280;4196;48.926;8.964;2024-03-02T10:15:05;97893.56;;;10.69;74.26
8318;BME280;4196;48.926;8.964;2024-03-02T10:17:52;97858.16;;;10.69;74.80
8318;BME280;4196;48.926;8.964;2024-03-02T10:20:40;97877.22;;;11.04;71.85
8318;BME280;4196;48.926;8.964;2024-03-02T10:23:26;97832.75;;;10.86;71.23
8318;BME280;4196;48.926;8.964;2024-03-02T10:26:39;97870.63;;;11.26;69.52
8318;BME280;4196;48.926;8.964;2024-03-02T10:29:40;97862.84;;;11.28;67.35
8318;BME280;4196;48.926;8.964;2024-03-02T10:32:27;97821.75;;;11.12;68.46
8318;BME280;4196;48.926;8.964;2024-03-02T10:35:15;97776.50;;;10.92;67.02
8318;BME280;4196;48.926;8.964;2024-03-02T10:38:03;97853.63;;;11.50;67.53
8318;BME280;4196;48.926;8.964;2024-03-02T10:40:50;97825.63;;;11.30;67.21
8318;BME280;4196;48.926;8.964;2024-03-02T10:43:37;97782.91;;;11.11;67.56
8318;BME280;4196;48.926;8.964;2024-03-02T10:46:27;97852.38;;;11.65;66.63
8318;BME280;4196;48.926;8.964;2024-03-02T10:49:15;97852.28;;;11.68;65.90
8318;BME280;4196;48.926;8.964;2024-03-02T10:52:02;97818.75;;;11.62;66.43
8318;BME280;4196;48.926;8.964;2024-03-02T10:54:49;97832.91;;;11.81;67.26
8318;BME280;4196;48.926;8.964;2024-03-02T10:57:53;97854.63;;;12.10;65.40
8318;BME280;4196;48.926;8.964;2024-03-02T11:00:41;97830.72;;;11.99;67.12
8318;BME280;4196;48.926;8.964;2024-03-02T11:03:35;97817.06;;;11.94;66.65
8318;BME280;4196;48.926;8.964;2024-03-02T11:06:23;97720.19;;;11.32;66.02
8318;BME280;4196;48.926;8.964;2024-03-02T11:09:14;97782.97;;;11.75;64.83
8318;BME280;4196;48.926;8.964;2024-03-02T11:15:10;97835.25;;;12.23;64.68
8318;BME280;4196;48.926;8.964;2024-03-02T11:17:57;97787.00;;;12.16;64.71
8318;BME280;4196;48.926;8.964;2024-03-02T11:20:44;97744.06;;;12.06;63.89
8318;BME280;4196;48.926;8.964;2024-03-02T11:23:34;97769.38;;;12.27;64.90
8318;BME280;4196;48.926;8.964;2024-03-02T11:26:22;97658.44;;;11.76;63.71
8318;BME280;4196;48.926;8.964;2024-03-02T11:32:22;97712.22;;;12.29;61.58
8318;BME280;4196;48.926;8.964;2024-03-02T11:35:11;97733.97;;;12.53;62.76
8318;BME280;4196;48.926;8.964;2024-03-02T11:37:58;97729.59;;;12.81;60.72
8318;BME280;4196;48.926;8.964;2024-03-02T11:40:45;97776.91;;;13.16;59.90
8318;BME280;4196;48.926;8.964;2024-03-02T11:43:32;97753.94;;;12.77;59.46
8318;BME280;4196;48.926;8.964;2024-03-02T11:46:22;97755.56;;;12.81;59.52
8318;BME280;4196;48.926;8.964;2024-03-02T11:49:08;97773.03;;;12.76;60.48
8318;BME280;4196;48.926;8.964;2024-03-02T11:52:01;97762.53;;;12.79;61.42
8318;BME280;4196;48.926;8.964;2024-03-02T11:54:48;97745.53;;;12.69;61.15
8318;BME280;4196;48.926;8.964;2024-03-02T11:57:37;97726.81;;;12.86;59.04
8318;BME280;4196;48.926;8.964;2024-03-02T12:00:24;97721.28;;;12.70;58.61
8318;BME280;4196;48.926;8.964;2024-03-02T12:03:13;97721.06;;;12.76;58.77
8318;BME280;4196;48.926;8.964;2024-03-02T12:05:59;97727.06;;;13.05;57.96
8318;BME280;4196;48.926;8.964;2024-03-02T12:08:45;97706.16;;;13.08;57.25
8318;BME280;4196;48.926;8.964;2024-03-02T12:11:32;97667.91;;;12.87;57.87
8318;BME280;4196;48.926;8.964;2024-03-02T12:14:18;97719.50;;;13.49;57.16
8318;BME280;4196;48.926;8.964;2024-03-02T12:17:05;97732.78;;;13.65;56.62
8318;BME280;4196;48.926;8.964;2024-03-02T12:19:52;97707.06;;;13.57;58.31
8318;BME280;4196;48.926;8.964;2024-03-02T12:22:52;97725.72;;;13.92;56.46
8318;BME280;4196;48.926;8.964;2024-03-02T12:25:40;97704.44;;;13.57;55.09
8318;BME280;4196;48.926;8.964;2024-03-02T12:28:27;97695.19;;;13.73;56.88
8318;BME280;4196;48.926;8.964;2024-03-02T12:31:14;97666.00;;;13.65;55.71
8318;BME280;4196;48.926;8.964;2024-03-02T12:34:00;97587.28;;;13.38;55.50
8318;BME280;4196;48.926;8.964;2024-03-02T12:36:47;97608.06;;;13.84;55.66
8318;BME280;4196;48.926;8.964;2024-03-02T12:39:35;97713.88;;;14.52;55.07
8318;BME280;4196;48.926;8.964;2024-03-02T12:42:23;97659.59;;;14.19;53.73
8318;BME280;4196;48.926;8.964;2024-03-02T12:45:11;97686.59;;;14.61;52.96
8318;BME280;4196;48.926;8.964;2024-03-02T12:48:00;97691.56;;;14.87;53.55
8318;BME280;4196;48.926;8.964;2024-03-02T12:50:47;97662.97;;;14.86;51.91
8318;BME280;4196;48.926;8.964;2024-03-02T12:53:34;97664.41;;;14.93;51.87
8318;BME280;4196;48.926;8.964;2024-03-02T12:56:20;97683.56;;;15.33;51.51
8318;BME280;4196;48.926;8.964;2024-03-02T12:59:07;97652.81;;;15.00;49.83
8318;BME280;4196;48.926;8.964;2024-03-02T13:01:54;97676.50;;;15.35;50.23
8318;BME280;4196;48.926;8.964;2024-03-02T13:04:43;97682.59;;;15.54;50.36
8318;BME280;4196;48.926;8.964;2024-03-02T13:07:30;97639.84;;;15.38;49.40
8318;BME280;4196;48.926;8.964;2024-03-02T13:10:17;97676.97;;;15.63;50.08
8318;BME280;4196;48.926;8.964;2024-03-02T13:13:05;97632.13;;;15.55;50.33
8318;BME280;4196;48.926;8.964;2024-03-02T13:15:55;97682.00;;;15.87;50.90
8318;BME280;4196;48.926;8.964;2024-03-02T13:18:44;97658.94;;;15.78;48.98
8318;BME280;4196;48.926;8.964;2024-03-02T13:21:31;97648.66;;;15.75;45.82
8318;BME280;4196;48.926;8.964;2024-03-02T13:24:18;97663.91;;;15.84;45.76
8318;BME280;4196;48.926;8.964;2024-03-02T13:27:06;97647.53;;;15.80;45.66
8318;BME280;4196;48.926;8.964;2024-03-02T13:29:54;97638.28;;;15.92;46.78
8318;BME280;4196;48.926;8.964;2024-03-02T13:32:40;97648.19;;;16.22;46.52
8318;BME280;4196;48.926;8.964;2024-03-02T13:35:26;97657.44;;;16.46;44.84
8318;BME280;4196;48.926;8.964;2024-03-02T13:38:14;97651.91;;;16.52;44.72
8318;BME280;4196;48.926;8.964;2024-03-02T13:41:01;97651.22;;;16.66;43.17
8318;BME280;4196;48.926;8.964;2024-03-02T13:43:48;97588.66;;;16.46;45.22
8318;BME280;4196;48.926;8.964;2024-03-02T13:46:37;97601.34;;;16.53;42.70
8318;BME280;4196;48.926;8.964;2024-03-02T13:49:24;97648.13;;;16.77;44.25
8318;BME280;4196;48.926;8.964;2024-03-02T13:52:10;97613.34;;;16.57;44.10
8318;BME280;4196;48.926;8.964;2024-03-02T13:54:59;97637.25;;;16.50;45.74
8318;BME280;4196;48.926;8.964;2024-03-02T13:57:46;97537.81;;;15.82;45.37
8318;BME280;4196;48.926;8.964;2024-03-02T14:00:34;97611.16;;;16.13;44.73
8318;BME280;4196;48.926;8.964;2024-03-02T14:03:20;97640.38;;;16.39;46.77
8318;BME280;4196;48.926;8.964;2024-03-02T14:06:09;97582.09;;;16.02;45.38
8318;BME280;4196;48.926;8.964;2024-03-02T14:08:55;97629.56;;;16.10;45.81
8318;BME280;4196;48.926;8.964;2024-03-02T14:11:42;97616.31;;;15.96;45.47
8318;BME280;4196;48.926;8.964;2024-03-02T14:14:28;97629.16;;;15.82;44.04
8318;BME280;4196;48.926;8.964;2024-03-02T14:17:14;97499.00;;;14.81;45.00
8318;BME280;4196;48.926;8.964;2024-03-02T14:20:02;97627.72;;;15.37;45.22
8318;BME280;4196;48.926;8.964;2024-03-02T14:22:52;97497.47;;;14.57;45.32
8318;BME280;4196;48.926;8.964;2024-03-02T14:25:39;97556.13;;;14.86;47.03
8318;BME280;4196;48.926;8.964;2024-03-02T14:28:25;97515.75;;;14.76;47.37
8318;BME280;4196;48.926;8.964;2024-03-02T14:31:32;97539.56;;;14.87;47.19
8318;BME280;4196;48.926;8.964;2024-03-02T14:34:18;97602.34;;;15.21;47.89
8318;BME280;4196;48.926;8.964;2024-03-02T14:37:05;97593.31;;;15.10;49.51
8318;BME280;4196;48.926;8.964;2024-03-02T14:39:52;97576.97;;;15.06;48.78
8318;BME280;4196;48.926;8.964;2024-03-02T14:42:38;97590.41;;;15.35;49.26
8318;BME280;4196;48.926;8.964;2024-03-02T14:45:25;97578.22;;;15.16;47.91
8318;BME280;4196;48.926;8.964;2024-03-02T14:48:12;97586.31;;;15.10;48.44
8318;BME280;4196;48.926;8.964;2024-03-02T14:50:58;97572.81;;;14.82;47.84
8318;BME280;4196;48.926;8.964;2024-03-02T14:53:45;97570.66;;;14.71;48.18
8318;BME280;4196;48.926;8.964;2024-03-02T14:56:31;97588.69;;;14.76;50.28
8318;BME280;4196;48.926;8.964;2024-03-02T14:59:17;97555.94;;;14.49;51.29
8318;BME280;4196;48.926;8.964;2024-03-02T15:02:05;97521.25;;;14.29;49.42
8318;BME280;4196;48.926;8.964;2024-03-02T15:04:52;97506.47;;;14.29;47.87
8318;BME280;4196;48.926;8.964;2024-03-02T15:07:38;97572.97;;;14.58;47.99
8318;BME280;4196;48.926;8.964;2024-03-02T15:10:25;97541.25;;;14.47;47.73
8318;BME280;4196;48.926;8.964;2024-03-02T15:13:11;97539.03;;;14.17;47.98
8318;BME280;4196;48.926;8.964;2024-03-02T15:15:58;97541.06;;;14.31;48.59
8318;BME280;4196;48.926;8.964;2024-03-02T15:18:45;97564.06;;;14.21;49.44
8318;BME280;4196;48.926;8.964;2024-03-02T15:21:32;97542.78;;;13.90;50.17
8318;BME280;4196;48.926;8.964;2024-03-02T15:24:18;97506.44;;;13.88;48.68